Time;durP1;ratioP1;P1;durP2;ratioP2;P2;SDS_P1;SDS_P2;PMS_P1;PMS_P2;Temp;Humidity;BMP_temperature;BMP_pressure;BME280_temperature;BME280_humidity;BME280_pressure;Samples;Min_cycle;Max_cycle;Signal;HPM_P1;HPM_P2
2022/07/22 00:01:29;;;;;;;5.75;5.30;;;24.30;70.30;;;;;;5008852;28;20193;-71
2022/07/22 00:03:55;;;;;;;6.15;5.65;;;24.30;70.20;;;;;;4993059;28;20198;-71
2022/07/22 00:06:21;;;;;;;6.10;5.60;;;24.30;70.30;;;;;;5009076;28;20209;-71
2022/07/22 00:08:47;;;;;;;5.63;5.20;;;24.20;70.20;;;;;;5009265;28;20304;-71
2022/07/22 00:11:13;;;;;;;5.90;5.40;;;24.30;70.30;;;;;;5009252;28;20188;-71
2022/07/22 00:13:38;;;;;;;5.78;5.28;;;24.30;71.00;;;;;;5008969;28;20247;-71
2022/07/22 00:16:05;;;;;;;5.75;5.22;;;24.30;70.20;;;;;;5008957;28;20665;-71
2022/07/22 00:18:31;;;;;;;6.10;5.60;;;24.30;70.20;;;;;;5009078;28;20189;-69
2022/07/22 00:20:57;;;;;;;5.05;4.65;;;24.20;70.10;;;;;;5008952;28;20200;-71
2022/07/22 00:23:23;;;;;;;5.57;5.07;;;24.20;70.20;;;;;;5008372;28;20186;-71
2022/07/22 00:25:48;;;;;;;5.13;4.72;;;24.20;70.10;;;;;;5008966;28;20219;-72
2022/07/22 00:28:14;;;;;;;5.50;5.10;;;24.20;70.10;;;;;;5008823;28;20300;-71
2022/07/22 00:30:40;;;;;;;6.07;5.57;;;24.20;70.10;;;;;;5008817;28;20188;-71
2022/07/22 00:33:06;;;;;;;5.75;5.30;;;24.20;70.10;;;;;;5007933;28;20189;-71
2022/07/22 00:35:32;;;;;;;6.00;5.40;;;24.20;70.10;;;;;;5008972;28;20255;-71
2022/07/22 00:37:57;;;;;;;6.35;5.75;;;24.20;70.10;;;;;;5008807;28;20256;-71
2022/07/22 00:40:23;;;;;;;5.30;4.90;;;24.20;70.10;;;;;;5009120;28;20586;-71
2022/07/22 00:42:50;;;;;;;6.05;5.53;;;24.20;70.10;;;;;;5008310;28;20199;-71
2022/07/22 00:45:16;;;;;;;5.45;5.05;;;24.20;70.10;;;;;;5008724;28;20205;-71
2022/07/22 00:47:42;;;;;;;5.68;5.15;;;24.20;70.10;;;;;;5008392;28;20181;-71
2022/07/22 00:50:08;;;;;;;5.15;4.72;;;24.20;70.10;;;;;;5008328;28;20184;-71
2022/07/22 00:52:35;;;;;;;5.68;5.18;;;24.20;70.10;;;;;;5007889;28;20606;-71
2022/07/22 00:55:04;;;;;;;5.65;5.25;;;24.20;70.00;;;;;;5008199;28;20192;-71
2022/07/22 00:57:30;;;;;;;5.43;4.93;;;24.20;70.00;;;;;;5008574;28;20177;-71
2022/07/22 00:59:57;;;;;;;5.65;5.15;;;24.20;70.00;;;;;;5008663;28;20246;-71
2022/07/22 01:02:23;;;;;;;4.53;4.13;;;24.20;70.00;;;;;;5008040;28;20549;-71
2022/07/22 01:04:49;;;;;;;5.60;5.10;;;24.20;70.00;;;;;;5008319;28;20196;-71
2022/07/22 01:07:15;;;;;;;5.75;5.25;;;24.20;70.00;;;;;;5008490;28;20181;-71
2022/07/22 01:09:45;;;;;;;5.38;5.00;;;24.20;70.00;;;;;;5008222;28;20208;-71
2022/07/22 01:12:12;;;;;;;5.25;4.75;;;24.20;70.00;;;;;;5007577;28;20231;-71
2022/07/22 01:14:38;;;;;;;5.75;5.28;;;24.20;70.00;;;;;;5008654;28;20207;-71
2022/07/22 01:17:04;;;;;;;5.78;5.28;;;24.20;70.00;;;;;;5008094;28;20292;-71
2022/07/22 01:19:30;;;;;;;5.20;4.80;;;24.20;70.00;;;;;;5008501;28;20279;-71
2022/07/22 01:21:56;;;;;;;4.70;4.30;;;24.20;70.00;;;;;;5007233;28;20220;-71
2022/07/22 01:24:22;;;;;;;5.45;5.05;;;24.20;70.00;;;;;;5008334;28;20664;-71
2022/07/22 01:26:48;;;;;;;5.00;4.60;;;24.20;70.00;;;;;;5007892;28;20212;-71
2022/07/22 01:29:15;;;;;;;5.30;4.80;;;24.20;70.00;;;;;;5008074;28;20205;-71
2022/07/22 01:31:41;;;;;;;5.47;4.97;;;24.10;70.70;;;;;;5007820;28;20268;-71
2022/07/22 01:34:07;;;;;;;4.93;4.53;;;24.10;69.90;;;;;;5007660;28;20188;-71
2022/07/22 01:36:35;;;;;;;5.00;4.60;;;24.20;70.00;;;;;;5007913;28;20205;-71
2022/07/22 01:39:03;;;;;;;5.72;5.13;;;24.10;69.90;;;;;;5008250;28;20185;-71
2022/07/22 01:41:30;;;;;;;5.05;4.65;;;24.20;69.90;;;;;;5007971;28;20184;-72
2022/07/22 01:43:55;;;;;;;5.22;4.80;;;24.10;69.80;;;;;;5007389;28;20192;-71
2022/07/22 01:46:23;;;;;;;5.20;4.80;;;24.20;70.70;;;;;;5007835;28;20209;-71
2022/07/22 01:48:51;;;;;;;4.78;4.38;;;24.20;69.90;;;;;;5008162;28;20208;-71
2022/07/22 01:51:18;;;;;;;4.90;4.50;;;24.20;69.90;;;;;;5008179;28;20574;-71
2022/07/22 01:53:44;;;;;;;5.10;4.70;;;24.10;69.80;;;;;;4993556;28;20202;-71
2022/07/22 01:56:10;;;;;;;5.10;4.70;;;24.10;69.80;;;;;;4988218;28;20229;-71
2022/07/22 01:58:44;;;;;;;4.97;4.57;;;24.10;69.80;;;;;;4988600;28;20195;-71
2022/07/22 02:01:21;;;;;;;5.05;4.65;;;24.10;69.80;;;;;;4988303;28;20211;-71
2022/07/22 02:03:47;;;;;;;4.85;4.45;;;24.10;69.80;;;;;;4987655;28;20194;-71
2022/07/22 02:06:12;;;;;;;4.68;4.28;;;24.10;69.80;;;;;;4988191;28;20213;-71
2022/07/22 02:08:38;;;;;;;5.15;4.65;;;24.10;69.80;;;;;;5007751;28;20222;-71
2022/07/22 02:11:13;;;;;;;5.10;4.55;;;24.10;69.80;;;;;;5007797;28;20185;-71
2022/07/22 02:14:05;;;;;;;4.95;4.55;;;24.10;69.80;;;;;;5001188;28;20213;-71
2022/07/22 02:16:31;;;;;;;5.00;4.60;;;24.10;69.70;;;;;;5007515;28;20208;-71
2022/07/22 02:18:57;;;;;;;5.05;4.65;;;24.10;69.70;;;;;;5007580;28;20184;-71
2022/07/22 02:21:23;;;;;;;4.68;4.28;;;24.10;69.70;;;;;;5007759;28;20199;-71
2022/07/22 02:23:53;;;;;;;4.75;4.43;;;24.10;69.70;;;;;;5007046;28;20185;-71
2022/07/22 02:26:19;;;;;;;4.53;4.22;;;24.10;69.70;;;;;;5007398;28;20208;-71
2022/07/22 02:28:46;;;;;;;4.88;4.47;;;24.10;69.70;;;;;;5007608;28;20689;-71
2022/07/22 02:31:12;;;;;;;4.75;4.35;;;24.10;69.60;;;;;;5007743;28;20216;-71
2022/07/22 02:33:38;;;;;;;4.53;4.22;;;24.10;69.60;;;;;;5007160;28;20189;-71
2022/07/22 02:36:05;;;;;;;5.28;4.88;;;24.10;69.60;;;;;;5010778;28;20205;-71
2022/07/22 02:38:33;;;;;;;4.97;4.47;;;24.10;69.70;;;;;;5011326;28;20212;-71
2022/07/22 02:40:59;;;;;;;4.75;4.35;;;24.10;69.70;;;;;;5011136;28;20241;-71
2022/07/22 02:43:25;;;;;;;4.90;4.50;;;24.10;69.60;;;;;;5010598;28;20185;-71
2022/07/22 02:45:52;;;;;;;5.53;5.05;;;24.10;70.40;;;;;;5010560;28;20213;-71
2022/07/22 02:48:19;;;;;;;4.88;4.57;;;24.10;70.40;;;;;;5010730;28;20303;-71
2022/07/22 02:50:46;;;;;;;5.22;4.82;;;24.10;69.60;;;;;;5010877;28;20188;-71
2022/07/22 02:53:15;;;;;;;4.75;4.40;;;24.10;69.70;;;;;;5006645;28;20204;-71
2022/07/22 02:55:40;;;;;;;4.75;4.35;;;24.10;69.60;;;;;;5010316;28;20219;-71
2022/07/22 02:58:08;;;;;;;5.20;4.80;;;24.10;69.60;;;;;;5010522;28;20239;-71
2022/07/22 03:00:37;;;;;;;4.85;4.45;;;24.10;69.60;;;;;;4978529;28;20267;-71
2022/07/22 03:03:05;;;;;;;5.03;4.63;;;24.10;69.60;;;;;;4993944;28;20213;-71
2022/07/22 03:05:32;;;;;;;5.03;4.63;;;24.10;69.50;;;;;;5010655;28;20343;-71
2022/07/22 03:08:15;;;;;;;4.40;4.10;;;24.10;69.50;;;;;;4994025;28;20217;-71
2022/07/22 03:10:41;;;;;;;4.65;4.25;;;24.10;69.50;;;;;;5010507;28;20188;-71
2022/07/22 03:13:06;;;;;;;4.25;3.95;;;24.10;69.50;;;;;;5010280;28;20247;-71
2022/07/22 03:15:32;;;;;;;4.72;4.43;;;24.10;69.40;;;;;;4993834;28;20232;-71
2022/07/22 03:17:58;;;;;;;5.00;4.60;;;24.10;69.50;;;;;;4993907;28;20358;-71
2022/07/22 03:20:25;;;;;;;4.50;4.20;;;24.10;69.40;;;;;;5010420;28;20319;-71
2022/07/22 03:22:51;;;;;;;4.55;4.25;;;24.10;69.50;;;;;;4993506;28;20612;-71
2022/07/22 03:25:17;;;;;;;4.97;4.60;;;24.10;69.40;;;;;;4993723;28;20200;-71
2022/07/22 03:27:43;;;;;;;5.05;4.65;;;24.00;69.30;;;;;;5009912;28;20185;-71
2022/07/22 03:30:10;;;;;;;5.22;4.25;;;24.00;69.40;;;;;;5010254;28;20239;-71
2022/07/22 03:32:38;;;;;;;4.88;4.47;;;24.10;69.50;;;;;;4992556;28;20569;-71
2022/07/22 03:35:06;;;;;;;4.60;4.20;;;24.00;69.30;;;;;;4993966;28;20188;-71
2022/07/22 03:37:40;;;;;;;5.03;4.60;;;24.00;69.40;;;;;;4994458;28;20204;-71
2022/07/22 03:40:07;;;;;;;4.82;4.40;;;24.00;69.30;;;;;;5009804;28;20196;-71
2022/07/22 03:42:33;;;;;;;4.65;4.30;;;24.00;69.30;;;;;;4993270;28;20189;-71
2022/07/22 03:44:59;;;;;;;4.45;4.15;;;24.00;69.30;;;;;;4993345;28;20192;-71
2022/07/22 03:47:25;;;;;;;4.60;4.30;;;24.00;69.30;;;;;;4993523;28;20727;-71
2022/07/22 03:49:52;;;;;;;4.88;4.47;;;24.00;69.20;;;;;;4993428;28;20213;-71
2022/07/22 03:52:25;;;;;;;4.50;4.20;;;24.00;69.20;;;;;;5009473;28;20637;-71
2022/07/22 03:54:51;;;;;;;5.13;4.47;;;24.00;69.20;;;;;;5009436;28;20176;-71
2022/07/22 03:57:17;;;;;;;4.78;4.40;;;24.00;69.20;;;;;;4991065;28;20197;-71
2022/07/22 03:59:43;;;;;;;4.07;3.78;;;24.00;69.20;;;;;;5009458;28;20181;-71
2022/07/22 04:02:09;;;;;;;4.50;4.15;;;24.00;69.30;;;;;;5009058;28;20251;-71
2022/07/22 04:04:35;;;;;;;4.20;3.90;;;24.00;69.20;;;;;;5009370;28;20189;-71
2022/07/22 04:07:01;;;;;;;4.07;3.78;;;24.00;69.30;;;;;;5009104;28;20216;-71
2022/07/22 04:09:33;;;;;;;3.95;3.65;;;24.00;69.20;;;;;;5008782;28;20598;-70
2022/07/22 04:11:59;;;;;;;4.47;4.07;;;24.00;69.30;;;;;;5008519;28;20192;-71
2022/07/22 04:14:26;;;;;;;4.65;4.25;;;24.00;69.40;;;;;;5009033;28;20267;-71
2022/07/22 04:16:55;;;;;;;4.35;4.05;;;24.00;69.30;;;;;;5008915;28;20215;-71
2022/07/22 04:19:21;;;;;;;4.78;4.25;;;24.00;69.30;;;;;;5009327;28;20185;-71
2022/07/22 04:21:50;;;;;;;4.68;4.28;;;24.00;69.20;;;;;;5009084;28;20220;-71
2022/07/22 04:24:18;;;;;;;4.03;3.72;;;24.00;69.20;;;;;;5009078;28;20188;-71
2022/07/22 04:26:44;;;;;;;4.65;4.30;;;24.00;69.20;;;;;;5009190;28;20200;-71
2022/07/22 04:29:10;;;;;;;4.38;4.07;;;24.00;69.10;;;;;;5009423;28;20303;-70
2022/07/22 04:31:35;;;;;;;4.80;4.20;;;24.00;69.20;;;;;;5009196;28;20214;-71
2022/07/22 04:34:06;;;;;;;4.82;4.35;;;24.00;69.10;;;;;;5006630;28;20192;-71
2022/07/22 04:36:32;;;;;;;4.55;4.15;;;24.00;69.00;;;;;;5008072;28;20205;-71
2022/07/22 04:38:59;;;;;;;4.43;4.10;;;24.00;69.00;;;;;;5008402;28;20192;-71
2022/07/22 04:41:24;;;;;;;4.32;3.97;;;24.00;69.00;;;;;;5008193;28;20726;-71
2022/07/22 04:43:51;;;;;;;4.25;3.85;;;24.00;68.90;;;;;;4991001;28;20184;-71
2022/07/22 04:46:19;;;;;;;4.40;4.00;;;24.00;69.70;;;;;;5007696;28;20243;-71
2022/07/22 04:48:45;;;;;;;4.55;4.15;;;24.00;69.00;;;;;;4991879;28;20255;-71
2022/07/22 04:51:11;;;;;;;4.45;4.05;;;24.00;68.90;;;;;;5007854;28;20252;-71
2022/07/22 04:53:37;;;;;;;4.40;4.07;;;24.00;68.90;;;;;;5007461;28;20279;-71
2022/07/22 04:56:03;;;;;;;4.13;3.83;;;23.90;68.80;;;;;;5007096;28;20300;-71
2022/07/22 04:58:29;;;;;;;4.72;4.32;;;23.90;68.80;;;;;;4991280;28;20213;-71
2022/07/22 05:00:55;;;;;;;4.40;4.00;;;24.00;68.90;;;;;;5010372;28;20219;-71
2022/07/22 05:03:21;;;;;;;4.72;4.40;;;24.00;68.90;;;;;;4990898;28;20185;-71
2022/07/22 05:05:47;;;;;;;4.50;4.20;;;23.90;68.70;;;;;;4975461;28;20579;-71
2022/07/22 05:08:19;;;;;;;4.35;4.00;;;24.00;68.90;;;;;;4992246;28;20212;-71
2022/07/22 05:10:45;;;;;;;4.13;3.78;;;24.00;68.90;;;;;;4991436;28;20192;-71
2022/07/22 05:13:13;;;;;;;4.70;4.40;;;23.90;68.80;;;;;;5007184;28;20185;-72
2022/07/22 05:15:40;;;;;;;4.50;4.20;;;24.00;68.90;;;;;;4991333;28;20204;-71
2022/07/22 05:18:06;;;;;;;4.63;4.25;;;23.90;68.80;;;;;;4991264;28;20648;-71
2022/07/22 05:20:32;;;;;;;4.05;3.75;;;24.00;68.90;;;;;;4975185;28;20189;-71
2022/07/22 05:22:58;;;;;;;4.68;4.28;;;24.00;68.90;;;;;;4993108;28;20184;-71
2022/07/22 05:25:26;;;;;;;4.15;3.80;;;23.90;68.80;;;;;;4987734;28;20209;-71
2022/07/22 05:27:54;;;;;;;4.20;3.85;;;24.00;68.90;;;;;;4987557;28;20185;-71
2022/07/22 05:30:25;;;;;;;4.07;3.78;;;23.90;68.80;;;;;;4987860;28;20660;-71
2022/07/22 05:32:53;;;;;;;4.25;3.85;;;24.00;68.90;;;;;;4987129;28;20182;-71
2022/07/22 05:35:31;;;;;;;4.18;3.58;;;24.00;68.90;;;;;;4973347;28;20206;-71
2022/07/22 05:37:57;;;;;;;4.18;3.88;;;24.00;68.90;;;;;;4987924;28;20181;-71
2022/07/22 05:40:23;;;;;;;4.15;3.85;;;23.90;68.80;;;;;;4987885;28;20190;-71
2022/07/22 05:42:49;;;;;;;4.40;4.10;;;23.90;68.80;;;;;;4987454;28;20215;-71
2022/07/22 05:45:15;;;;;;;4.30;4.00;;;24.00;68.90;;;;;;4987931;28;20209;-72
2022/07/22 05:47:41;;;;;;;4.38;4.07;;;24.00;69.80;;;;;;4987767;28;20552;-72
2022/07/22 05:50:08;;;;;;;4.50;4.20;;;24.00;69.00;;;;;;5002346;28;20380;-72
2022/07/22 05:52:38;;;;;;;4.32;4.03;;;23.90;68.90;;;;;;5006525;28;20200;-72
2022/07/22 05:55:06;;;;;;;4.88;4.47;;;23.90;68.90;;;;;;5007577;28;20201;-71
2022/07/22 05:57:32;;;;;;;4.55;4.25;;;24.00;69.00;;;;;;5007309;28;20177;-71
2022/07/22 05:59:58;;;;;;;4.88;4.47;;;24.00;69.10;;;;;;5007338;28;20185;-71
2022/07/22 06:02:24;;;;;;;4.50;4.10;;;24.00;69.20;;;;;;5006774;28;20571;-71
2022/07/22 06:04:50;;;;;;;4.57;4.18;;;24.00;69.10;;;;;;5007165;28;20192;-71
2022/07/22 06:07:18;;;;;;;4.78;3.92;;;24.00;69.20;;;;;;5007402;28;20605;-71
2022/07/22 06:09:46;;;;;;;4.30;4.00;;;24.00;69.20;;;;;;5010899;28;20217;-72
2022/07/22 06:12:14;;;;;;;4.35;3.97;;;24.00;69.20;;;;;;5009917;28;20192;-71
2022/07/22 06:14:39;;;;;;;4.97;4.55;;;24.00;69.30;;;;;;5010851;28;20581;-71
2022/07/22 06:17:06;;;;;;;4.10;3.70;;;24.00;69.20;;;;;;5010505;28;20213;-71
2022/07/22 06:19:33;;;;;;;4.45;4.07;;;24.00;69.30;;;;;;5010899;28;20189;-71
2022/07/22 06:21:59;;;;;;;4.63;4.18;;;24.00;69.50;;;;;;5010758;28;20200;-71
2022/07/22 06:24:25;;;;;;;4.50;4.20;;;24.00;69.60;;;;;;5010166;28;20197;-71
2022/07/22 06:26:51;;;;;;;4.60;4.28;;;24.00;69.60;;;;;;5010816;28;20236;-71
2022/07/22 06:29:17;;;;;;;4.90;4.50;;;24.00;69.60;;;;;;5010079;28;20585;-72
2022/07/22 06:31:43;;;;;;;4.55;4.25;;;24.00;69.60;;;;;;5010543;28;20196;-72
2022/07/22 06:34:08;;;;;;;4.28;3.97;;;24.00;69.70;;;;;;5009874;28;20247;-71
2022/07/22 06:36:52;;;;;;;4.30;4.00;;;24.00;69.80;;;;;;5010316;28;20204;-71
2022/07/22 06:39:18;;;;;;;4.32;4.00;;;24.00;69.70;;;;;;5010320;28;20660;-71
2022/07/22 06:42:02;;;;;;;4.43;3.97;;;24.00;69.90;;;;;;5008286;28;20193;-71
2022/07/22 06:44:46;;;;;;;4.47;4.18;;;24.00;69.80;;;;;;5008273;28;20252;-71
2022/07/22 06:47:23;;;;;;;4.18;3.88;;;24.00;69.70;;;;;;5010359;28;20287;-72
2022/07/22 06:49:49;;;;;;;4.10;3.80;;;24.00;69.80;;;;;;5010413;28;20743;-71
2022/07/22 06:52:15;;;;;;;4.63;4.15;;;24.10;69.80;;;;;;4993356;28;20181;-71
2022/07/22 06:54:41;;;;;;;4.13;3.83;;;24.00;69.70;;;;;;5010026;28;20181;-72
2022/07/22 06:57:07;;;;;;;4.35;4.05;;;24.00;69.70;;;;;;5009507;28;20240;-72
2022/07/22 06:59:34;;;;;;;4.18;3.88;;;24.10;69.90;;;;;;4993756;28;20192;-72
2022/07/22 07:02:06;;;;;;;4.18;3.88;;;24.00;69.80;;;;;;5009840;28;20281;-72
2022/07/22 07:04:32;;;;;;;4.32;4.03;;;24.10;70.60;;;;;;4993053;28;20227;-72
2022/07/22 07:06:58;;;;;;;4.70;4.40;;;24.00;69.70;;;;;;4993494;28;20229;-71
2022/07/22 07:09:33;;;;;;;4.70;4.28;;;24.00;69.70;;;;;;4993538;28;20609;-72
2022/07/22 07:12:11;;;;;;;4.72;4.32;;;24.00;69.60;;;;;;4994390;28;20180;-71
2022/07/22 07:14:55;;;;;;;4.10;3.80;;;24.10;69.70;;;;;;5007435;28;20235;-71
2022/07/22 07:17:21;;;;;;;5.18;4.47;;;24.00;69.60;;;;;;4977147;28;20180;-72
2022/07/22 07:19:47;;;;;;;4.57;4.18;;;24.00;69.50;;;;;;5009209;28;20224;-71
2022/07/22 07:22:13;;;;;;;4.65;4.20;;;24.10;69.60;;;;;;4976352;28;20189;-71
2022/07/22 07:24:38;;;;;;;4.22;3.92;;;24.10;69.70;;;;;;4993343;28;20189;-72
2022/07/22 07:27:05;;;;;;;4.60;4.20;;;24.10;69.80;;;;;;4976892;28;20212;-71
2022/07/22 07:29:31;;;;;;;5.00;4.60;;;24.10;69.70;;;;;;4992992;28;20221;-72
2022/07/22 07:31:58;;;;;;;4.25;3.95;;;24.10;69.50;;;;;;4977297;28;20199;-71
2022/07/22 07:34:24;;;;;;;4.90;4.50;;;24.10;69.40;;;;;;5008840;28;20244;-72
2022/07/22 07:36:50;;;;;;;4.80;4.40;;;24.10;69.30;;;;;;5009034;28;20204;-71
2022/07/22 07:39:16;;;;;;;4.78;4.38;;;24.10;69.30;;;;;;5009312;28;20583;-71
2022/07/22 07:41:42;;;;;;;4.43;4.13;;;24.10;69.30;;;;;;4976854;28;20199;-72
2022/07/22 07:44:11;;;;;;;4.38;3.97;;;24.10;69.30;;;;;;5008710;28;20195;-72
2022/07/22 07:46:37;;;;;;;5.00;4.32;;;24.10;69.40;;;;;;4976377;28;20332;-71
2022/07/22 07:49:03;;;;;;;4.72;4.32;;;24.10;69.30;;;;;;4976751;28;20209;-71
2022/07/22 07:51:29;;;;;;;4.82;4.43;;;24.10;69.40;;;;;;5009033;28;20193;-71
2022/07/22 07:53:55;;;;;;;4.20;3.90;;;24.10;69.30;;;;;;5008575;28;20185;-72
2022/07/22 07:56:22;;;;;;;4.82;4.50;;;24.10;69.30;;;;;;5006264;28;20205;-72
2022/07/22 07:58:47;;;;;;;4.45;4.07;;;24.20;69.40;;;;;;5008673;28;20570;-72
2022/07/22 08:01:13;;;;;;;4.43;4.03;;;24.20;69.40;;;;;;5008811;28;20192;-71
2022/07/22 08:03:39;;;;;;;5.65;4.75;;;24.20;69.40;;;;;;5008227;28;20420;-72
2022/07/22 08:06:06;;;;;;;5.10;4.70;;;24.20;69.40;;;;;;5008545;28;20201;-72
2022/07/22 08:08:32;;;;;;;4.20;3.90;;;24.20;69.30;;;;;;5008437;28;20209;-70
2022/07/22 08:11:04;;;;;;;4.95;4.55;;;24.20;69.50;;;;;;5008651;28;20191;-72
2022/07/22 08:13:36;;;;;;;4.45;4.10;;;24.20;69.40;;;;;;5008020;28;20189;-72
2022/07/22 08:16:20;;;;;;;4.85;4.45;;;24.20;69.50;;;;;;4993920;28;20276;-72
2022/07/22 08:18:46;;;;;;;5.43;4.93;;;24.20;69.40;;;;;;5008970;28;20209;-70
2022/07/22 08:21:12;;;;;;;5.75;5.25;;;24.20;69.40;;;;;;5008908;28;20228;-71
2022/07/22 08:23:52;;;;;;;4.97;4.57;;;24.20;69.40;;;;;;5008421;28;20185;-71
2022/07/22 08:26:18;;;;;;;4.88;4.47;;;24.20;69.40;;;;;;4992360;28;20212;-71
2022/07/22 08:28:44;;;;;;;5.13;4.63;;;24.20;69.60;;;;;;5008503;28;20275;-71
2022/07/22 08:31:11;;;;;;;4.40;4.10;;;24.20;69.50;;;;;;4991812;28;20220;-72
2022/07/22 08:33:37;;;;;;;5.05;4.65;;;24.20;69.60;;;;;;5008422;28;20185;-72
2022/07/22 08:36:04;;;;;;;4.38;4.07;;;24.20;69.70;;;;;;5008866;28;20688;-71
2022/07/22 08:38:31;;;;;;;4.63;3.97;;;24.20;69.70;;;;;;5008588;28;20185;-72
2022/07/22 08:41:00;;;;;;;4.53;4.18;;;24.20;69.80;;;;;;5008862;28;20184;-71
2022/07/22 08:43:25;;;;;;;5.28;4.68;;;24.20;69.90;;;;;;5008151;28;20193;-72
2022/07/22 08:45:53;;;;;;;4.88;4.45;;;24.20;70.00;;;;;;5008496;28;20291;-71
2022/07/22 08:48:20;;;;;;;4.85;4.55;;;24.20;70.00;;;;;;5008680;28;20217;-72
2022/07/22 08:51:01;;;;;;;4.75;4.40;;;24.20;70.10;;;;;;5008486;28;20177;-71
2022/07/22 08:53:36;;;;;;;5.38;4.97;;;24.20;70.00;;;;;;4991606;28;20176;-71
2022/07/22 08:56:08;;;;;;;5.38;4.97;;;24.20;70.10;;;;;;5007777;28;20215;-71
2022/07/22 08:58:34;;;;;;;5.47;4.97;;;24.20;70.30;;;;;;4992440;28;20189;-72
2022/07/22 09:01:13;;;;;;;5.75;5.25;;;24.20;70.20;;;;;;5008251;28;20188;-71
2022/07/22 09:03:55;;;;;;;4.85;4.45;;;24.20;70.30;;;;;;5007804;28;20216;-72
2022/07/22 09:06:27;;;;;;;4.75;4.35;;;24.20;70.30;;;;;;4992340;28;20205;-71
2022/07/22 09:09:01;;;;;;;4.60;4.20;;;24.20;70.50;;;;;;5008091;28;20216;-71
2022/07/22 09:12:07;;;;;;;5.20;4.80;;;24.20;70.30;;;;;;4961567;28;20321;-71
2022/07/22 09:14:51;;;;;;;5.55;5.15;;;24.20;70.30;;;;;;4977463;28;20267;-71
2022/07/22 09:17:38;;;;;;;5.00;4.60;;;24.20;71.10;;;;;;4994110;28;20173;-72
2022/07/22 09:20:35;;;;;;;5.10;4.80;;;24.20;70.60;;;;;;4995769;28;20259;-71
2022/07/22 09:23:22;;;;;;;5.20;4.80;;;24.20;70.60;;;;;;5005443;28;20247;-71
2022/07/22 09:25:49;;;;;;;5.30;4.90;;;24.30;70.60;;;;;;5007715;28;20197;-72
2022/07/22 09:28:54;;;;;;;5.30;4.90;;;24.20;70.60;;;;;;5007675;28;20239;-72
2022/07/22 09:31:36;;;;;;;4.85;4.45;;;24.20;70.50;;;;;;5007274;28;20621;-71
2022/07/22 09:34:31;;;;;;;4.97;4.57;;;24.20;70.60;;;;;;4991411;28;20203;-72
2022/07/22 09:37:02;;;;;;;5.00;4.60;;;24.20;70.70;;;;;;5008155;28;20268;-71
2022/07/22 09:39:32;;;;;;;4.97;4.57;;;24.30;70.60;;;;;;5008067;28;20192;-71
2022/07/22 09:42:04;;;;;;;4.93;4.53;;;24.30;70.60;;;;;;4992088;28;20398;-71
2022/07/22 09:44:30;;;;;;;5.35;4.85;;;24.30;70.70;;;;;;4975091;28;20185;-72
2022/07/22 09:47:00;;;;;;;5.75;5.15;;;24.30;70.80;;;;;;4976460;28;20206;-71
2022/07/22 09:49:42;;;;;;;5.78;4.88;;;24.20;70.80;;;;;;4976483;28;20289;-71
2022/07/22 09:52:42;;;;;;;5.95;5.45;;;24.20;70.80;;;;;;4970001;28;20197;-71
2022/07/22 09:55:19;;;;;;;5.32;4.85;;;24.30;70.90;;;;;;4980552;28;20240;-71
2022/07/22 09:57:46;;;;;;;6.00;5.38;;;24.30;70.90;;;;;;4992240;28;20178;-71
2022/07/22 10:00:15;;;;;;;6.32;5.72;;;24.30;70.70;;;;;;4992511;28;20182;-71
2022/07/22 10:02:59;;;;;;;7.45;5.63;;;24.30;70.70;;;;;;4991503;28;20177;-71
2022/07/22 10:05:34;;;;;;;5.15;4.75;;;24.30;70.90;;;;;;4992131;28;20216;-71
2022/07/22 10:08:02;;;;;;;5.38;4.95;;;24.30;70.90;;;;;;4991854;28;20821;-72
2022/07/22 10:10:30;;;;;;;5.82;5.15;;;24.30;70.80;;;;;;4992146;28;20186;-71
2022/07/22 10:13:00;;;;;;;5.45;4.95;;;24.30;70.80;;;;;;4991210;28;20177;-72
2022/07/22 10:15:29;;;;;;;5.18;4.78;;;24.30;70.70;;;;;;4995201;28;20197;-72
2022/07/22 10:18:00;;;;;;;5.72;5.22;;;24.30;70.90;;;;;;4991503;28;20194;-71
2022/07/22 10:20:29;;;;;;;5.20;4.80;;;24.30;70.60;;;;;;5011514;28;20248;-70
2022/07/22 10:23:05;;;;;;;5.72;5.32;;;24.30;70.50;;;;;;5010859;28;20180;-70
2022/07/22 10:25:51;;;;;;;5.50;5.00;;;24.30;70.60;;;;;;5011065;28;20231;-71
2022/07/22 10:28:28;;;;;;;5.63;5.13;;;24.30;70.60;;;;;;4994352;28;20193;-71
2022/07/22 10:31:14;;;;;;;5.53;5.10;;;24.30;70.40;;;;;;4994978;28;20189;-72
2022/07/22 10:33:40;;;;;;;5.38;4.80;;;24.30;70.10;;;;;;5010663;28;20193;-71
2022/07/22 10:36:08;;;;;;;5.38;4.97;;;24.30;70.30;;;;;;5010832;28;20197;-71
2022/07/22 10:38:34;;;;;;;5.28;4.88;;;24.30;70.40;;;;;;5011127;28;20189;-71
2022/07/22 10:41:06;;;;;;;5.20;4.80;;;24.30;70.40;;;;;;4994825;28;20304;-71
2022/07/22 10:43:41;;;;;;;5.60;5.10;;;24.30;70.40;;;;;;5010352;28;20203;-70
2022/07/22 10:46:06;;;;;;;5.53;5.13;;;24.30;70.50;;;;;;4994590;28;20239;-71
2022/07/22 10:48:32;;;;;;;5.22;4.82;;;24.40;70.70;;;;;;4994427;28;20691;-71
2022/07/22 10:51:09;;;;;;;5.43;5.03;;;24.30;70.60;;;;;;4990600;28;20240;-70
2022/07/22 10:53:59;;;;;;;5.45;5.05;;;24.30;70.70;;;;;;5004321;28;20177;-71
2022/07/22 10:56:29;;;;;;;5.60;5.10;;;24.30;70.40;;;;;;4993557;28;20226;-71
2022/07/22 10:59:06;;;;;;;5.70;5.20;;;24.30;70.40;;;;;;4994387;28;20199;-71
2022/07/22 11:01:32;;;;;;;5.50;5.00;;;24.30;70.40;;;;;;4961483;28;20189;-71
2022/07/22 11:04:16;;;;;;;5.28;4.88;;;24.30;70.40;;;;;;4974227;28;20193;-70
2022/07/22 11:06:44;;;;;;;6.10;5.60;;;24.40;70.40;;;;;;4985943;28;20209;-71
2022/07/22 11:09:12;;;;;;;5.53;5.03;;;24.30;70.30;;;;;;5008611;28;20209;-72
2022/07/22 11:11:52;;;;;;;5.32;4.93;;;24.30;70.20;;;;;;4975076;28;20301;-71
2022/07/22 11:14:31;;;;;;;5.80;5.30;;;24.30;70.20;;;;;;4988741;28;20638;-71
2022/07/22 11:17:10;;;;;;;5.38;4.93;;;24.40;70.30;;;;;;5003861;28;20209;-72
2022/07/22 11:19:38;;;;;;;5.45;4.97;;;24.30;70.30;;;;;;4999316;28;20185;-72
2022/07/22 11:22:09;;;;;;;5.53;5.03;;;24.40;70.30;;;;;;4994120;28;20193;-72
2022/07/22 11:24:37;;;;;;;5.35;4.95;;;24.40;70.40;;;;;;4977320;28;20197;-71
2022/07/22 11:27:04;;;;;;;5.53;5.13;;;24.30;70.20;;;;;;5026038;28;20288;-71
2022/07/22 11:29:35;;;;;;;6.00;5.60;;;24.40;70.30;;;;;;4992873;28;20228;-71
2022/07/22 11:32:05;;;;;;;5.20;4.80;;;24.40;70.30;;;;;;4993167;28;20192;-72
2022/07/22 11:34:31;;;;;;;5.65;5.25;;;24.40;70.30;;;;;;4992748;28;20189;-71
2022/07/22 11:36:58;;;;;;;5.65;5.15;;;24.40;70.20;;;;;;5026174;28;20624;-71
2022/07/22 11:39:28;;;;;;;5.78;5.18;;;24.40;70.20;;;;;;4993622;28;20188;-71
2022/07/22 11:41:57;;;;;;;5.72;5.22;;;24.40;70.00;;;;;;5025887;28;20189;-71
2022/07/22 11:44:30;;;;;;;5.13;4.72;;;24.40;70.10;;;;;;5025358;28;20231;-72
2022/07/22 11:47:00;;;;;;;5.88;5.45;;;24.40;70.20;;;;;;5026537;28;20689;-71
2022/07/22 11:49:33;;;;;;;5.45;4.93;;;24.40;70.00;;;;;;5026171;28;20216;-71
2022/07/22 11:52:00;;;;;;;5.60;5.10;;;24.40;70.00;;;;;;4993245;28;20181;-71
2022/07/22 11:54:27;;;;;;;5.53;5.13;;;24.40;69.90;;;;;;5025266;28;20681;-71
2022/07/22 11:56:53;;;;;;;5.82;5.30;;;24.40;69.90;;;;;;5011213;28;20216;-71
2022/07/22 11:59:20;;;;;;;5.03;4.63;;;24.40;69.70;;;;;;5009125;28;20185;-71
2022/07/22 12:01:48;;;;;;;5.10;4.70;;;24.40;69.40;;;;;;5009765;28;20185;-71
2022/07/22 12:04:22;;;;;;;5.70;5.25;;;24.40;69.50;;;;;;5008538;28;20263;-71
2022/07/22 12:06:49;;;;;;;5.70;5.28;;;24.40;69.70;;;;;;5009136;28;20208;-71
2022/07/22 12:09:32;;;;;;;5.63;5.22;;;24.40;69.70;;;;;;5009271;28;20723;-71
2022/07/22 12:11:59;;;;;;;5.57;5.07;;;24.40;69.70;;;;;;5009334;28;20276;-71
2022/07/22 12:14:31;;;;;;;5.43;5.03;;;24.40;69.70;;;;;;5008632;28;20192;-72
2022/07/22 12:17:08;;;;;;;5.60;5.10;;;24.40;69.70;;;;;;5009417;28;20256;-71
2022/07/22 12:19:37;;;;;;;5.15;4.78;;;24.40;69.70;;;;;;5009416;28;20188;-72
2022/07/22 12:22:12;;;;;;;5.78;5.28;;;24.40;69.70;;;;;;5009227;28;20746;-71
2022/07/22 12:24:42;;;;;;;5.60;5.20;;;24.40;69.40;;;;;;5007385;28;20189;-72
2022/07/22 12:27:16;;;;;;;4.55;4.25;;;24.40;69.30;;;;;;5008568;28;20316;-71
2022/07/22 12:29:48;;;;;;;5.22;4.82;;;24.40;69.30;;;;;;5007984;28;20271;-71
2022/07/22 12:32:29;;;;;;;5.50;5.10;;;24.40;69.30;;;;;;5008615;28;20627;-71
2022/07/22 12:34:55;;;;;;;5.32;4.90;;;24.40;69.40;;;;;;5007587;28;20192;-70
2022/07/22 12:37:28;;;;;;;5.32;5.00;;;24.40;69.30;;;;;;4975752;28;20284;-71
2022/07/22 12:40:07;;;;;;;5.38;4.97;;;24.40;69.10;;;;;;5008180;28;20196;-71
2022/07/22 12:42:40;;;;;;;5.63;5.15;;;24.40;69.10;;;;;;4992140;28;20189;-71
2022/07/22 12:45:10;;;;;;;4.78;4.47;;;24.40;69.30;;;;;;4991502;28;20180;-71
2022/07/22 12:47:54;;;;;;;5.57;5.00;;;24.50;69.30;;;;;;5008142;28;20189;-71
2022/07/22 12:50:38;;;;;;;5.90;5.50;;;24.40;69.10;;;;;;4991626;28;20250;-71
2022/07/22 12:53:09;;;;;;;5.78;5.30;;;24.40;69.00;;;;;;4990735;28;20189;-71
2022/07/22 12:55:48;;;;;;;6.00;5.45;;;24.40;69.00;;;;;;5007620;28;20216;-71
2022/07/22 12:58:15;;;;;;;5.45;4.95;;;24.40;69.10;;;;;;5007372;28;20185;-71
2022/07/22 13:00:48;;;;;;;5.43;4.93;;;24.40;69.10;;;;;;5007971;28;20184;-71